• Join FlightAware (Why Join?)
  • Login
  • US Flag GB Flag 
03:19 EDT


 

Airport Tracker/Info


-or-


 

Live Flight TrackerFlight Track Log ✈ AVN50 ✈ 16-Oct-2013 ✈ NVVV / VLI - NZAA / AKL

Flight Track Log - Related Links

Times and Time Zones

All times are in EDT time to prevent confusion due to time zone crossing. See the AVN50 flight status page for this flight to view local times or setup timezone preferences in your user account.

Time Position Orientation Groundspeed Altitude Reporting Facility
EDT Latitude Longitude Course Direction KTS MPH feet Rate Location/Type
16:14 -18.2386 168.4662 166° South  Level FlightAware Approximate
16:15 -18.3465 168.4955 166° South  Level FlightAware Approximate
16:16 -18.4543 168.5250 165° South  Level FlightAware Approximate
16:17 -18.5621 168.5544 165° South  Level FlightAware Approximate
16:18 -18.6700 168.5839 165° South  Level FlightAware Approximate
16:19 -18.7778 168.6134 165° South  Level FlightAware Approximate
16:20 -18.8856 168.6430 165° South  Level FlightAware Approximate
16:21 -18.9934 168.6726 165° South  Level FlightAware Approximate
16:22 -19.1012 168.7023 165° South  Level FlightAware Approximate
16:23 -19.2090 168.7320 165° South  Level FlightAware Approximate
16:24 -19.3168 168.7617 165° South  Level FlightAware Approximate
16:25 -19.4246 168.7914 165° South  Level FlightAware Approximate
16:26 -19.5324 168.8212 165° South  Level FlightAware Approximate
16:27 -19.6402 168.8511 165° South  Level FlightAware Approximate
16:28 -19.7480 168.8810 165° South  Level FlightAware Approximate
16:29 -19.8558 168.9109 165° South  Level FlightAware Approximate
16:30 -19.9636 168.9408 165° South  Level FlightAware Approximate
16:31 -20.0713 168.9708 165° South  Level FlightAware Approximate
16:32 -20.1791 169.0009 165° South  Level FlightAware Approximate
16:33 -20.2868 169.0310 165° South  Level FlightAware Approximate
16:34 -20.3946 169.0611 165° South  Level FlightAware Approximate
16:35 -20.5023 169.0913 165° South  Level FlightAware Approximate
16:36 -20.6101 169.1215 165° South  Level FlightAware Approximate
16:37 -20.7178 169.1517 165° South  Level FlightAware Approximate
16:38 -20.8256 169.1821 165° South  Level FlightAware Approximate
16:39 -20.9333 169.2124 165° South  Level FlightAware Approximate
16:40 -21.0410 169.2428 165° South  Level FlightAware Approximate
16:41 -21.1487 169.2732 165° South  Level FlightAware Approximate
16:42 -21.2564 169.3037 165° South  Level FlightAware Approximate
16:43 -21.3641 169.3342 165° South  Level FlightAware Approximate
16:44 -21.4718 169.3648 165° South  Level FlightAware Approximate
16:45 -21.5795 169.3954 165° South  Level FlightAware Approximate
16:46 -21.6872 169.4260 165° South  Level FlightAware Approximate
16:47 -21.7949 169.4567 165° South  Level FlightAware Approximate
16:48 -21.9026 169.4875 165° South  Level FlightAware Approximate
16:49 -22.0102 169.5183 165° South  Level FlightAware Approximate
16:50 -22.1179 169.5491 165° South  Level FlightAware Approximate
16:51 -22.2255 169.5800 165° South  Level FlightAware Approximate
16:52 -22.3332 169.6109 165° South  Level FlightAware Approximate
16:53 -22.4408 169.6419 165° South  Level FlightAware Approximate
16:54 -22.5485 169.6729 165° South  Level FlightAware Approximate
16:55 -22.6561 169.7040 165° South  Level FlightAware Approximate
16:56 -22.7638 169.7352 165° South  Level FlightAware Approximate
16:57 -22.8714 169.7663 165° South  Level FlightAware Approximate
16:58 -22.9790 169.7976 165° South  Level FlightAware Approximate
16:59 -23.0866 169.8289 165° South  Level FlightAware Approximate
17:00 -23.1942 169.8602 165° South  Level FlightAware Approximate
17:01 -23.3018 169.8916 165° South  Level FlightAware Approximate
17:02 -23.4094 169.9230 165° South  Level FlightAware Approximate
17:03 -23.5170 169.9545 165° South  Level FlightAware Approximate
17:04 -23.6246 169.9860 165° South  Level FlightAware Approximate
17:05 -23.7321 170.0176 165° South  Level FlightAware Approximate
17:06 -23.8397 170.0492 165° South  Level FlightAware Approximate
17:07 -23.9467 170.0830 164° South  Level Estimated
17:08 -24.0541 170.1154 165° South  Level FlightAware Approximate
17:09 -24.1615 170.1478 165° South  Level FlightAware Approximate
17:10 -24.2689 170.1803 165° South  Level FlightAware Approximate
17:11 -24.3763 170.2129 165° South  Level FlightAware Approximate
17:12 -24.4836 170.2455 165° South  Level FlightAware Approximate
17:13 -24.5910 170.2782 165° South  Level FlightAware Approximate
17:14 -24.6983 170.3109 165° South  Level FlightAware Approximate
17:14 -25.7333 170.6167 164° South 500 575  Level New Zealand
17:15 -24.8057 170.3437 165° South  Level FlightAware Approximate
17:16 -24.9130 170.3765 164° South  Level FlightAware Approximate
17:16 -26.0167 170.7000 165° South 500 575  Level New Zealand
17:18 -26.1500 170.7500 161° South 511 588 600 Level New Zealand
17:20 -26.4333 170.8333 165° South 511 588 660 Level New Zealand
17:22 -26.7000 170.9167 164° South 511 588 660 Level New Zealand
17:24 -26.9833 171.0167 163° South 511 588 720 Level New Zealand
17:26 -27.2500 171.1000 164° South 511 588 720 Level New Zealand
17:28 -27.5167 171.1833 165° South 511 588 780 Level New Zealand
17:30 -27.8000 171.2833 163° South 511 588 780 Level New Zealand
17:32 -28.0667 171.3667 165° South 511 588 840 Level New Zealand
17:34 -28.3500 171.4500 165° South 511 588 900 Level New Zealand
17:36 -28.6167 171.5500 162° South 511 588 900 Level New Zealand
17:38 -28.9000 171.6333 166° South 511 588 960 Level New Zealand
17:40 -29.1667 171.7333 162° South 511 588 1,020 Level New Zealand
17:42 -29.4333 171.8167 165° South 511 588 1,080 Level New Zealand
17:44 -29.7167 171.9167 163° South 497 572 1,140 Level New Zealand
17:46 -29.9833 172.0000 165° South 506 582 1,260 Level New Zealand
17:48 -30.2500 172.1000 162° South 506 582 1,320 Level New Zealand
17:50 -30.5167 172.1833 165° South 506 582 1,440 Level New Zealand
17:52 -30.8000 172.2833 163° South 506 582 1,560 Level New Zealand
17:54 -31.0667 172.3833 162° South 506 582 1,740 Level New Zealand
17:56 -31.3333 172.4667 165° South 506 582 1,920 Level New Zealand
17:58 -31.6000 172.5667 162° South 506 582 2,160 Level New Zealand
18:00 -31.8667 172.6667 162° South 506 582 2,460 Level New Zealand
18:02 -32.1500 172.7500 166° South 506 582 2,820 Level New Zealand
18:04 -32.4167 172.8500 162° South 506 582 3,360 Level New Zealand
18:06 -32.6833 172.9500 162° South 506 582 4,080 Level New Zealand
18:08 -32.9500 173.0500 163° South 506 582 5,280 Level New Zealand
18:10 -33.2167 173.1500 163° South 506 582 7,440 Level New Zealand
18:12 -33.5000 173.2500 164° South 506 582 12,420 Level New Zealand
18:13 -33.5540 173.2690 164° South 485 558 37,000 23,580 Climbing FlightAware
18:13 -33.6333 173.2833 164° South 485 558  Descending New Zealand
18:13 -33.6240 173.2950 164° South 486 559 37,000 60,000 Climbing FlightAware
18:14 -33.7070 173.3260 163° South 489 563 37,000  Level FlightAware
18:14 -33.7700 173.3500 162° South 490 564 37,000  Level FlightAware
18:15 -33.8570 173.3840 162° South 495 570 37,000  Level FlightAware
18:16 -33.9320 173.4290 154° Southeast 512 589 37,000  Level FlightAware
18:16 -34.0020 173.4810 154° Southeast 513 590 37,000  Level FlightAware
18:16 -34.0167 173.4833 154° Southeast 506 582  Descending New Zealand
18:17 -34.0730 173.5340 148° Southeast 515 593 37,000 37,620 Climbing FlightAware
18:17 -34.1350 173.5800 148° Southeast 510 587 37,000  Level FlightAware
18:17 -34.1333 173.5833 148° Southeast 515 593  Descending New Zealand
18:18 -34.2150 173.6400 148° Southeast 512 589 37,000 30,360 Climbing FlightAware
18:18 -34.2870 173.6950 148° Southeast 512 589 37,000  Level FlightAware
18:19 -34.3690 173.7560 148° Southeast 512 589 37,000  Level FlightAware
18:19 -34.3833 173.7667 148° Southeast 518 596  Descending New Zealand
18:20 -34.4410 173.8100 148° Southeast 516 594 37,000 36,360 Climbing FlightAware
18:20 -34.5167 173.8667 148° Southeast 514 592  Descending New Zealand
18:20 -34.5100 173.8620 148° Southeast 513 590 37,000 63,420 Climbing FlightAware
18:21 -34.5820 173.9170 148° Southeast 513 590 37,000  Level FlightAware
18:21 -34.6510 173.9690 148° Southeast 513 590 37,000  Level FlightAware
18:22 -34.7220 174.0230 148° Southeast 513 590 37,000  Level FlightAware
18:23 -34.7910 174.0760 148° Southeast 513 590 37,000  Level FlightAware
18:23 -34.8620 174.1300 148° Southeast 512 589 37,000  Level FlightAware
18:24 -34.9320 174.1830 148° Southeast 509 586 37,000  Level FlightAware
18:24 -35.0000 174.2333 148° Southeast 508 585  Descending New Zealand
18:24 -35.0020 174.2360 148° Southeast 508 585 37,000 63,420 Climbing FlightAware
18:25 -35.0710 174.2890 148° Southeast 502 578 37,000  Level FlightAware
18:26 -35.1420 174.3440 148° Southeast 500 575 37,000  Level FlightAware
18:26 -35.2110 174.3960 148° Southeast 500 575 37,000  Level FlightAware
18:27 -35.2900 174.4580 147° Southeast 498 573 37,000 -360 Level FlightAware
18:27 -35.3490 174.5030 147° Southeast 500 575 36,600 -1,800 Descending FlightAware
18:27 -35.3667 174.5167 147° Southeast 502 578 -2,580 Descending New Zealand
18:28 -35.4170 174.5570 147° Southeast 495 570 35,100 27,840 Climbing FlightAware
18:28 -35.4833 174.6000 147° Southeast 496 571 -2,820 Descending New Zealand
18:29 -35.5070 174.6120 147° Southeast 482 555 33,000 37,440 Climbing FlightAware
18:29 -35.5900 174.6520 159° South 471 542 31,200 -2,880 Descending FlightAware
18:30 -35.6600 174.6860 158° South 463 533 29,500 -3,480 Descending FlightAware
18:30 -35.7310 174.7190 158° South 467 537 27,100 -3,660 Descending FlightAware
18:30 -35.7333 174.7167 158° South 467 537 -3,360 Descending New Zealand
18:31 -35.8010 174.7530 158° South 452 520 25,200 21,120 Climbing FlightAware
18:32 -35.8700 174.7850 159° South 436 502 23,600 -2,340 Descending FlightAware
18:32 -35.9330 174.8150 159° South 413 475 22,500 -1,920 Descending FlightAware
18:33 -35.9960 174.8460 158° South 401 461 21,400 -2,100 Descending FlightAware
18:33 -36.0550 174.8740 159° South 383 441 20,100 -2,280 Descending FlightAware
18:34 -36.1220 174.9060 159° South 380 437 18,600 -2,220 Descending FlightAware
18:35 -36.1833 174.9333 159° South 376 433 -2,100 Descending New Zealand
18:35 -36.1860 174.9370 159° South 361 415 17,200 21,960 Climbing FlightAware
18:35 -36.2430 174.9570 164° South 355 409 15,400 -2,400 Descending FlightAware
18:36 -36.2920 174.9630 174° South 339 390 14,600 -1,680 Descending FlightAware
18:36 -36.3560 174.9700 175° South 327 376 13,500 -1,680 Descending FlightAware
18:37 -36.4070 174.9760 175° South 309 356 12,500 -1,500 Descending FlightAware
18:38 -36.4500 174.9810 175° South 295 339 11,900 -1,500 Descending FlightAware
18:38 -36.4667 174.9833 175° South 307 353 -1,680 Descending New Zealand
18:38 -36.4990 174.9870 174° South 290 334 10,900 9,960 Climbing FlightAware
18:39 -36.5400 174.9920 174° South 295 339 10,000 -1,800 Descending FlightAware
18:39 -36.5500 175.0000 174° South 295 339 -1,740 Descending New Zealand
18:39 -36.5680 174.9950 175° South 291 335 9,400 14,040 Climbing FlightAware
18:39 -36.5940 174.9980 175° South 289 333 8,900 -1,740 Descending FlightAware
18:40 -36.6200 175.0010 175° South 277 319 8,300 -1,740 Descending FlightAware
18:40 -36.6540 175.0050 175° South 291 335 7,600 -1,740 Descending FlightAware
18:40 -36.6810 175.0080 175° South 291 335 7,000 -1,320 Descending FlightAware
18:41 -36.7190 175.0030 186° South 263 303 6,500 -1,320 Descending FlightAware
18:41 -36.7440 174.9990 187° South 261 300 5,900 -1,980 Descending FlightAware
18:42 -36.7690 174.9940 189° South 259 298 5,200 -1,680 Descending FlightAware
18:42 -36.7930 174.9900 188° South 261 300 4,800 -1,080 Descending FlightAware
18:42 -36.8220 174.9850 188° South 243 280 4,400 -720 Descending FlightAware
18:43 -36.8440 174.9810 188° South 231 266 4,300 -420 Descending FlightAware
18:43 -36.8540 174.9790 189° South 227 261 4,200 -540 Descending FlightAware
18:43 -36.8790 174.9750 187° South 211 243 4,000 -720 Descending FlightAware
18:44 -36.8990 174.9710 189° South 210 242 3,700 -1,080 Descending FlightAware
18:44 -36.9190 174.9680 187° South 213 245 3,300 -1,080 Descending FlightAware
18:44 -36.9380 174.9640 190° South 198 228 3,000 -1,080 Descending FlightAware
18:45 -36.9610 174.9580 192° South 185 213 2,500 -1,200 Descending FlightAware
18:45 -36.9660 174.9510 228° Southwest 178 205 2,300 -1,200 Descending FlightAware
18:45 -36.9690 174.9410 249° West 173 199 2,100 -900 Descending FlightAware
18:45 -36.9720 174.9320 247° West 170 196 2,000 -780 Descending FlightAware
18:45 -36.9770 174.9120 253° West 165 190 1,700 -960 Descending FlightAware
18:46 -36.9840 174.8900 248° West 157 181 1,300 -960 Descending FlightAware
18:46 -36.9880 174.8730 254° West 148 170 1,000 -780 Descending FlightAware
18:47 -36.9920 174.8590 250° West 135 155 800 -600 Descending FlightAware
18:47 -36.9960 174.8430 253° West 126 145 600 -780 Descending FlightAware
18:47 -37.0000 174.8290 250° West 126 145 300 -720 Descending FlightAware
18:48 -37.0040 174.8140 252° West 125 144 100 -600 Descending FlightAware
18:48 -37.0070 174.8040 249° West 125 144 -480 Descending FlightAware
18:48 -37.0100 174.7930 251° West 76 87  Level FlightAware